sensor_id;sensor_type;location;lat;lon;timestamp;P1;durP1;ratioP1;P2;durP2;ratioP2
16506;SDS011;8366;51.020;7.642;2023-03-01T00:01:23;16.37;;;9.43;;
16506;SDS011;8366;51.020;7.642;2023-03-01T00:03:51;14.33;;;8.80;;
16506;SDS011;8366;51.020;7.642;2023-03-01T00:06:18;14.93;;;9.53;;
16506;SDS011;8366;51.020;7.642;2023-03-01T00:08:47;14.03;;;8.70;;
16506;SDS011;8366;51.020;7.642;2023-03-01T00:11:15;16.20;;;9.20;;
16506;SDS011;8366;51.020;7.642;2023-03-01T00:13:43;15.23;;;9.23;;
16506;SDS011;8366;51.020;7.642;2023-03-01T00:16:11;17.27;;;10.20;;
16506;SDS011;8366;51.020;7.642;2023-03-01T00:18:38;16.73;;;10.27;;
16506;SDS011;8366;51.020;7.642;2023-03-01T00:21:05;19.70;;;10.87;;
16506;SDS011;8366;51.020;7.642;2023-03-01T00:23:33;20.43;;;10.83;;
16506;SDS011;8366;51.020;7.642;2023-03-01T00:26:02;19.17;;;9.77;;
16506;SDS011;8366;51.020;7.642;2023-03-01T00:28:28;15.77;;;9.60;;
16506;SDS011;8366;51.020;7.642;2023-03-01T00:30:55;18.43;;;10.03;;
16506;SDS011;8366;51.020;7.642;2023-03-01T00:33:21;16.93;;;8.97;;
16506;SDS011;8366;51.020;7.642;2023-03-01T00:35:48;15.47;;;9.73;;
16506;SDS011;8366;51.020;7.642;2023-03-01T00:38:14;14.97;;;9.83;;
16506;SDS011;8366;51.020;7.642;2023-03-01T00:40:41;13.77;;;9.37;;
16506;SDS011;8366;51.020;7.642;2023-03-01T00:43:08;18.30;;;9.60;;
16506;SDS011;8366;51.020;7.642;2023-03-01T00:45:35;18.53;;;9.70;;
16506;SDS011;8366;51.020;7.642;2023-03-01T00:48:02;15.40;;;9.83;;
16506;SDS011;8366;51.020;7.642;2023-03-01T00:50:30;18.03;;;9.40;;
16506;SDS011;8366;51.020;7.642;2023-03-01T00:52:56;17.10;;;9.50;;
16506;SDS011;8366;51.020;7.642;2023-03-01T00:55:23;16.50;;;8.73;;
16506;SDS011;8366;51.020;7.642;2023-03-01T00:57:50;16.03;;;8.63;;
16506;SDS011;8366;51.020;7.642;2023-03-01T01:00:18;14.80;;;8.63;;
16506;SDS011;8366;51.020;7.642;2023-03-01T01:02:45;19.27;;;10.10;;
16506;SDS011;8366;51.020;7.642;2023-03-01T01:05:12;14.30;;;8.93;;
16506;SDS011;8366;51.020;7.642;2023-03-01T01:07:39;17.30;;;9.27;;
16506;SDS011;8366;51.020;7.642;2023-03-01T01:10:06;16.90;;;10.57;;
16506;SDS011;8366;51.020;7.642;2023-03-01T01:12:33;14.70;;;9.17;;
16506;SDS011;8366;51.020;7.642;2023-03-01T01:14:59;13.67;;;8.50;;
16506;SDS011;8366;51.020;7.642;2023-03-01T01:17:27;12.33;;;7.93;;
16506;SDS011;8366;51.020;7.642;2023-03-01T01:19:54;19.37;;;10.37;;
16506;SDS011;8366;51.020;7.642;2023-03-01T01:22:20;13.40;;;8.63;;
16506;SDS011;8366;51.020;7.642;2023-03-01T01:24:47;14.27;;;8.80;;
16506;SDS011;8366;51.020;7.642;2023-03-01T01:27:13;12.63;;;8.83;;
16506;SDS011;8366;51.020;7.642;2023-03-01T01:29:39;13.97;;;8.87;;
16506;SDS011;8366;51.020;7.642;2023-03-01T01:32:07;18.93;;;11.07;;
16506;SDS011;8366;51.020;7.642;2023-03-01T01:34:34;20.80;;;11.10;;
16506;SDS011;8366;51.020;7.642;2023-03-01T01:37:01;21.30;;;10.13;;
16506;SDS011;8366;51.020;7.642;2023-03-01T01:39:28;18.97;;;10.13;;
16506;SDS011;8366;51.020;7.642;2023-03-01T01:41:54;15.63;;;9.57;;
16506;SDS011;8366;51.020;7.642;2023-03-01T01:44:22;17.87;;;9.87;;
16506;SDS011;8366;51.020;7.642;2023-03-01T01:46:50;15.03;;;9.70;;
16506;SDS011;8366;51.020;7.642;2023-03-01T01:49:22;14.23;;;8.80;;
16506;SDS011;8366;51.020;7.642;2023-03-01T01:51:54;18.40;;;9.50;;
16506;SDS011;8366;51.020;7.642;2023-03-01T01:54:25;15.93;;;9.60;;
16506;SDS011;8366;51.020;7.642;2023-03-01T01:56:54;15.97;;;9.53;;
16506;SDS011;8366;51.020;7.642;2023-03-01T01:59:23;14.40;;;8.40;;
16506;SDS011;8366;51.020;7.642;2023-03-01T02:01:50;13.60;;;8.17;;
16506;SDS011;8366;51.020;7.642;2023-03-01T02:04:17;17.20;;;9.37;;
16506;SDS011;8366;51.020;7.642;2023-03-01T02:06:45;16.17;;;9.30;;
16506;SDS011;8366;51.020;7.642;2023-03-01T02:09:16;17.87;;;9.33;;
16506;SDS011;8366;51.020;7.642;2023-03-01T02:11:45;19.27;;;9.83;;
16506;SDS011;8366;51.020;7.642;2023-03-01T02:14:13;16.63;;;9.63;;
16506;SDS011;8366;51.020;7.642;2023-03-01T02:16:40;16.87;;;9.33;;
16506;SDS011;8366;51.020;7.642;2023-03-01T02:19:07;14.83;;;9.20;;
16506;SDS011;8366;51.020;7.642;2023-03-01T02:21:37;14.00;;;8.13;;
16506;SDS011;8366;51.020;7.642;2023-03-01T02:24:10;14.47;;;8.77;;
16506;SDS011;8366;51.020;7.642;2023-03-01T02:26:48;16.33;;;8.80;;
16506;SDS011;8366;51.020;7.642;2023-03-01T02:29:17;14.53;;;8.00;;
16506;SDS011;8366;51.020;7.642;2023-03-01T02:31:44;14.47;;;8.50;;
16506;SDS011;8366;51.020;7.642;2023-03-01T02:34:12;14.97;;;8.70;;
16506;SDS011;8366;51.020;7.642;2023-03-01T02:36:40;17.30;;;8.77;;
16506;SDS011;8366;51.020;7.642;2023-03-01T02:39:10;14.00;;;8.23;;
16506;SDS011;8366;51.020;7.642;2023-03-01T02:41:41;17.33;;;8.63;;
16506;SDS011;8366;51.020;7.642;2023-03-01T02:44:09;14.30;;;8.80;;
16506;SDS011;8366;51.020;7.642;2023-03-01T02:46:42;17.60;;;8.90;;
16506;SDS011;8366;51.020;7.642;2023-03-01T02:49:20;14.93;;;9.17;;
16506;SDS011;8366;51.020;7.642;2023-03-01T02:51:55;14.00;;;9.17;;
16506;SDS011;8366;51.020;7.642;2023-03-01T02:54:33;16.63;;;9.37;;
16506;SDS011;8366;51.020;7.642;2023-03-01T02:57:03;16.70;;;9.57;;
16506;SDS011;8366;51.020;7.642;2023-03-01T02:59:30;16.77;;;9.60;;
16506;SDS011;8366;51.020;7.642;2023-03-01T03:02:05;17.77;;;9.70;;
16506;SDS011;8366;51.020;7.642;2023-03-01T03:04:32;13.80;;;8.87;;
16506;SDS011;8366;51.020;7.642;2023-03-01T03:06:58;15.80;;;9.30;;
16506;SDS011;8366;51.020;7.642;2023-03-01T03:09:25;16.83;;;9.47;;
16506;SDS011;8366;51.020;7.642;2023-03-01T03:11:52;16.77;;;9.23;;
16506;SDS011;8366;51.020;7.642;2023-03-01T03:14:18;18.43;;;9.67;;
16506;SDS011;8366;51.020;7.642;2023-03-01T03:16:46;18.50;;;9.83;;
16506;SDS011;8366;51.020;7.642;2023-03-01T03:19:14;17.47;;;9.40;;
16506;SDS011;8366;51.020;7.642;2023-03-01T03:21:41;16.10;;;9.10;;
16506;SDS011;8366;51.020;7.642;2023-03-01T03:24:08;19.33;;;10.37;;
16506;SDS011;8366;51.020;7.642;2023-03-01T03:26:35;17.30;;;9.97;;
16506;SDS011;8366;51.020;7.642;2023-03-01T03:29:01;19.20;;;10.27;;
16506;SDS011;8366;51.020;7.642;2023-03-01T03:31:28;21.83;;;11.27;;
16506;SDS011;8366;51.020;7.642;2023-03-01T03:33:55;19.53;;;9.97;;
16506;SDS011;8366;51.020;7.642;2023-03-01T03:36:23;18.00;;;10.40;;
16506;SDS011;8366;51.020;7.642;2023-03-01T03:38:50;18.27;;;10.47;;
16506;SDS011;8366;51.020;7.642;2023-03-01T03:41:17;16.80;;;9.63;;
16506;SDS011;8366;51.020;7.642;2023-03-01T03:43:44;16.13;;;9.93;;
16506;SDS011;8366;51.020;7.642;2023-03-01T03:46:11;17.40;;;8.93;;
16506;SDS011;8366;51.020;7.642;2023-03-01T03:48:39;15.30;;;9.73;;
16506;SDS011;8366;51.020;7.642;2023-03-01T03:51:06;14.27;;;8.67;;
16506;SDS011;8366;51.020;7.642;2023-03-01T03:53:34;17.17;;;9.00;;
16506;SDS011;8366;51.020;7.642;2023-03-01T03:56:00;17.77;;;9.23;;
16506;SDS011;8366;51.020;7.642;2023-03-01T03:58:27;15.37;;;8.50;;
16506;SDS011;8366;51.020;7.642;2023-03-01T04:00:54;15.20;;;9.40;;
16506;SDS011;8366;51.020;7.642;2023-03-01T04:03:23;17.93;;;9.30;;
16506;SDS011;8366;51.020;7.642;2023-03-01T04:05:50;19.90;;;9.80;;
16506;SDS011;8366;51.020;7.642;2023-03-01T04:08:18;15.07;;;8.63;;
16506;SDS011;8366;51.020;7.642;2023-03-01T04:10:48;15.47;;;8.67;;
16506;SDS011;8366;51.020;7.642;2023-03-01T04:13:18;14.63;;;8.57;;
16506;SDS011;8366;51.020;7.642;2023-03-01T04:15:45;16.37;;;8.67;;
16506;SDS011;8366;51.020;7.642;2023-03-01T04:18:13;15.37;;;9.30;;
16506;SDS011;8366;51.020;7.642;2023-03-01T04:20:40;16.33;;;8.87;;
16506;SDS011;8366;51.020;7.642;2023-03-01T04:23:08;13.60;;;8.33;;
16506;SDS011;8366;51.020;7.642;2023-03-01T04:25:41;19.40;;;8.93;;
16506;SDS011;8366;51.020;7.642;2023-03-01T04:28:10;15.37;;;9.17;;
16506;SDS011;8366;51.020;7.642;2023-03-01T04:30:37;15.60;;;8.33;;
16506;SDS011;8366;51.020;7.642;2023-03-01T04:33:04;17.43;;;9.20;;
16506;SDS011;8366;51.020;7.642;2023-03-01T04:35:31;22.20;;;10.47;;
16506;SDS011;8366;51.020;7.642;2023-03-01T04:37:59;27.97;;;13.30;;
16506;SDS011;8366;51.020;7.642;2023-03-01T04:40:26;18.63;;;9.50;;
16506;SDS011;8366;51.020;7.642;2023-03-01T04:42:52;22.40;;;10.57;;
16506;SDS011;8366;51.020;7.642;2023-03-01T04:45:20;15.10;;;9.33;;
16506;SDS011;8366;51.020;7.642;2023-03-01T04:47:47;18.33;;;8.63;;
16506;SDS011;8366;51.020;7.642;2023-03-01T04:50:14;15.37;;;8.87;;
16506;SDS011;8366;51.020;7.642;2023-03-01T04:52:45;14.77;;;8.83;;
16506;SDS011;8366;51.020;7.642;2023-03-01T04:55:13;16.50;;;9.00;;
16506;SDS011;8366;51.020;7.642;2023-03-01T04:57:39;17.87;;;8.67;;
16506;SDS011;8366;51.020;7.642;2023-03-01T05:00:07;15.83;;;8.80;;
16506;SDS011;8366;51.020;7.642;2023-03-01T05:02:46;19.23;;;9.13;;
16506;SDS011;8366;51.020;7.642;2023-03-01T05:05:18;17.20;;;8.67;;
16506;SDS011;8366;51.020;7.642;2023-03-01T05:07:45;18.10;;;9.37;;
16506;SDS011;8366;51.020;7.642;2023-03-01T05:10:12;20.07;;;10.23;;
16506;SDS011;8366;51.020;7.642;2023-03-01T05:12:39;20.40;;;10.50;;
16506;SDS011;8366;51.020;7.642;2023-03-01T05:15:06;18.63;;;10.23;;
16506;SDS011;8366;51.020;7.642;2023-03-01T05:17:33;16.43;;;9.47;;
16506;SDS011;8366;51.020;7.642;2023-03-01T05:20:01;17.00;;;10.07;;
16506;SDS011;8366;51.020;7.642;2023-03-01T05:22:32;17.77;;;9.57;;
16506;SDS011;8366;51.020;7.642;2023-03-01T05:24:59;17.63;;;9.53;;
16506;SDS011;8366;51.020;7.642;2023-03-01T05:27:25;15.40;;;9.53;;
16506;SDS011;8366;51.020;7.642;2023-03-01T05:29:52;16.03;;;9.77;;
16506;SDS011;8366;51.020;7.642;2023-03-01T05:32:18;16.17;;;9.47;;
16506;SDS011;8366;51.020;7.642;2023-03-01T05:34:45;18.50;;;9.53;;
16506;SDS011;8366;51.020;7.642;2023-03-01T05:37:13;18.57;;;9.33;;
16506;SDS011;8366;51.020;7.642;2023-03-01T05:39:40;16.60;;;10.20;;
16506;SDS011;8366;51.020;7.642;2023-03-01T05:42:09;15.37;;;9.73;;
16506;SDS011;8366;51.020;7.642;2023-03-01T05:44:37;16.37;;;8.97;;
16506;SDS011;8366;51.020;7.642;2023-03-01T05:47:04;19.67;;;9.73;;
16506;SDS011;8366;51.020;7.642;2023-03-01T05:49:31;17.93;;;9.97;;
16506;SDS011;8366;51.020;7.642;2023-03-01T05:51:58;19.33;;;10.50;;
16506;SDS011;8366;51.020;7.642;2023-03-01T05:54:26;20.13;;;10.40;;
16506;SDS011;8366;51.020;7.642;2023-03-01T05:56:52;20.43;;;10.13;;
16506;SDS011;8366;51.020;7.642;2023-03-01T05:59:19;20.43;;;9.87;;
16506;SDS011;8366;51.020;7.642;2023-03-01T06:01:45;21.30;;;10.70;;
16506;SDS011;8366;51.020;7.642;2023-03-01T06:04:12;21.37;;;10.60;;
16506;SDS011;8366;51.020;7.642;2023-03-01T06:06:38;16.70;;;9.93;;
16506;SDS011;8366;51.020;7.642;2023-03-01T06:09:05;18.50;;;10.47;;
16506;SDS011;8366;51.020;7.642;2023-03-01T06:11:36;16.20;;;9.67;;
16506;SDS011;8366;51.020;7.642;2023-03-01T06:14:03;19.33;;;9.53;;
16506;SDS011;8366;51.020;7.642;2023-03-01T06:16:31;16.57;;;9.07;;
16506;SDS011;8366;51.020;7.642;2023-03-01T06:18:57;16.73;;;9.83;;
16506;SDS011;8366;51.020;7.642;2023-03-01T06:21:24;18.03;;;10.10;;
16506;SDS011;8366;51.020;7.642;2023-03-01T06:23:51;22.37;;;10.70;;
16506;SDS011;8366;51.020;7.642;2023-03-01T06:26:17;21.43;;;9.97;;
16506;SDS011;8366;51.020;7.642;2023-03-01T06:28:46;16.30;;;9.57;;
16506;SDS011;8366;51.020;7.642;2023-03-01T06:31:12;17.83;;;8.60;;
16506;SDS011;8366;51.020;7.642;2023-03-01T06:33:39;18.03;;;9.47;;
16506;SDS011;8366;51.020;7.642;2023-03-01T06:36:06;20.33;;;10.13;;
16506;SDS011;8366;51.020;7.642;2023-03-01T06:38:33;20.40;;;9.10;;
16506;SDS011;8366;51.020;7.642;2023-03-01T06:41:00;20.23;;;10.63;;
16506;SDS011;8366;51.020;7.642;2023-03-01T06:43:26;17.63;;;10.07;;
16506;SDS011;8366;51.020;7.642;2023-03-01T06:45:55;19.87;;;10.47;;
16506;SDS011;8366;51.020;7.642;2023-03-01T06:48:21;17.57;;;10.53;;
16506;SDS011;8366;51.020;7.642;2023-03-01T06:50:48;25.47;;;12.30;;
16506;SDS011;8366;51.020;7.642;2023-03-01T06:53:15;25.20;;;11.67;;
16506;SDS011;8366;51.020;7.642;2023-03-01T06:55:41;21.57;;;10.27;;
16506;SDS011;8366;51.020;7.642;2023-03-01T06:58:08;27.93;;;13.63;;
16506;SDS011;8366;51.020;7.642;2023-03-01T07:00:35;26.00;;;12.47;;
16506;SDS011;8366;51.020;7.642;2023-03-01T07:03:03;20.73;;;11.13;;
16506;SDS011;8366;51.020;7.642;2023-03-01T07:05:30;23.23;;;12.97;;
16506;SDS011;8366;51.020;7.642;2023-03-01T07:07:56;20.40;;;12.17;;
16506;SDS011;8366;51.020;7.642;2023-03-01T07:10:23;25.60;;;12.83;;
16506;SDS011;8366;51.020;7.642;2023-03-01T07:12:50;24.60;;;13.53;;
16506;SDS011;8366;51.020;7.642;2023-03-01T07:15:16;26.50;;;11.90;;
16506;SDS011;8366;51.020;7.642;2023-03-01T07:17:43;24.87;;;12.23;;
16506;SDS011;8366;51.020;7.642;2023-03-01T07:20:16;22.23;;;12.47;;
16506;SDS011;8366;51.020;7.642;2023-03-01T07:22:43;22.57;;;12.37;;
16506;SDS011;8366;51.020;7.642;2023-03-01T07:25:10;28.73;;;14.13;;
16506;SDS011;8366;51.020;7.642;2023-03-01T07:27:37;24.10;;;13.27;;
16506;SDS011;8366;51.020;7.642;2023-03-01T07:30:04;21.33;;;13.00;;
16506;SDS011;8366;51.020;7.642;2023-03-01T07:32:32;24.47;;;13.07;;
16506;SDS011;8366;51.020;7.642;2023-03-01T07:34:59;24.33;;;13.70;;
16506;SDS011;8366;51.020;7.642;2023-03-01T07:37:27;26.27;;;13.67;;
16506;SDS011;8366;51.020;7.642;2023-03-01T07:39:54;26.20;;;13.73;;
16506;SDS011;8366;51.020;7.642;2023-03-01T07:42:21;24.67;;;13.33;;
16506;SDS011;8366;51.020;7.642;2023-03-01T07:44:48;24.60;;;12.43;;
16506;SDS011;8366;51.020;7.642;2023-03-01T07:47:14;26.57;;;13.27;;
16506;SDS011;8366;51.020;7.642;2023-03-01T07:49:41;19.50;;;10.67;;
16506;SDS011;8366;51.020;7.642;2023-03-01T07:52:09;25.47;;;12.37;;
16506;SDS011;8366;51.020;7.642;2023-03-01T07:54:37;26.00;;;13.70;;
16506;SDS011;8366;51.020;7.642;2023-03-01T07:57:04;29.30;;;13.27;;
16506;SDS011;8366;51.020;7.642;2023-03-01T07:59:30;28.07;;;14.00;;
16506;SDS011;8366;51.020;7.642;2023-03-01T08:01:57;29.13;;;14.07;;
16506;SDS011;8366;51.020;7.642;2023-03-01T08:04:24;30.43;;;15.13;;
16506;SDS011;8366;51.020;7.642;2023-03-01T08:06:51;22.30;;;12.57;;
16506;SDS011;8366;51.020;7.642;2023-03-01T08:09:18;23.37;;;12.43;;
16506;SDS011;8366;51.020;7.642;2023-03-01T08:11:46;21.90;;;12.73;;
16506;SDS011;8366;51.020;7.642;2023-03-01T08:14:12;22.67;;;12.33;;
16506;SDS011;8366;51.020;7.642;2023-03-01T08:16:39;21.90;;;12.47;;
16506;SDS011;8366;51.020;7.642;2023-03-01T08:19:05;25.83;;;13.53;;
16506;SDS011;8366;51.020;7.642;2023-03-01T08:21:32;24.67;;;12.97;;
16506;SDS011;8366;51.020;7.642;2023-03-01T08:24:00;26.17;;;13.27;;
16506;SDS011;8366;51.020;7.642;2023-03-01T08:26:27;26.67;;;13.20;;
16506;SDS011;8366;51.020;7.642;2023-03-01T08:28:55;23.07;;;12.73;;
16506;SDS011;8366;51.020;7.642;2023-03-01T08:31:22;22.97;;;12.17;;
16506;SDS011;8366;51.020;7.642;2023-03-01T08:33:50;21.43;;;11.47;;
16506;SDS011;8366;51.020;7.642;2023-03-01T08:36:20;19.37;;;10.90;;
16506;SDS011;8366;51.020;7.642;2023-03-01T08:38:47;17.60;;;9.47;;
16506;SDS011;8366;51.020;7.642;2023-03-01T08:41:14;16.30;;;10.20;;
16506;SDS011;8366;51.020;7.642;2023-03-01T08:43:40;15.47;;;9.57;;
16506;SDS011;8366;51.020;7.642;2023-03-01T08:46:08;16.67;;;9.73;;
16506;SDS011;8366;51.020;7.642;2023-03-01T08:48:35;16.43;;;9.23;;
16506;SDS011;8366;51.020;7.642;2023-03-01T08:51:08;15.83;;;9.40;;
16506;SDS011;8366;51.020;7.642;2023-03-01T08:53:35;16.57;;;9.60;;
16506;SDS011;8366;51.020;7.642;2023-03-01T08:56:01;14.27;;;8.70;;
16506;SDS011;8366;51.020;7.642;2023-03-01T08:58:28;12.60;;;6.40;;
16506;SDS011;8366;51.020;7.642;2023-03-01T09:00:55;15.50;;;9.40;;
16506;SDS011;8366;51.020;7.642;2023-03-01T09:03:24;14.43;;;8.03;;
16506;SDS011;8366;51.020;7.642;2023-03-01T09:05:51;13.90;;;8.67;;
16506;SDS011;8366;51.020;7.642;2023-03-01T09:08:18;14.90;;;9.23;;
16506;SDS011;8366;51.020;7.642;2023-03-01T09:10:45;14.13;;;8.43;;
16506;SDS011;8366;51.020;7.642;2023-03-01T09:13:12;15.93;;;9.20;;
16506;SDS011;8366;51.020;7.642;2023-03-01T09:15:39;15.73;;;8.03;;
16506;SDS011;8366;51.020;7.642;2023-03-01T09:18:05;14.80;;;9.23;;
16506;SDS011;8366;51.020;7.642;2023-03-01T09:20:33;15.47;;;9.17;;
16506;SDS011;8366;51.020;7.642;2023-03-01T09:23:00;16.93;;;9.20;;
16506;SDS011;8366;51.020;7.642;2023-03-01T09:25:27;16.00;;;9.53;;
16506;SDS011;8366;51.020;7.642;2023-03-01T09:27:54;15.13;;;9.27;;
16506;SDS011;8366;51.020;7.642;2023-03-01T09:30:21;13.77;;;8.80;;
16506;SDS011;8366;51.020;7.642;2023-03-01T09:32:47;14.33;;;9.57;;
16506;SDS011;8366;51.020;7.642;2023-03-01T09:35:18;16.90;;;9.67;;
16506;SDS011;8366;51.020;7.642;2023-03-01T09:37:49;17.07;;;9.37;;
16506;SDS011;8366;51.020;7.642;2023-03-01T09:40:16;15.43;;;9.77;;
16506;SDS011;8366;51.020;7.642;2023-03-01T09:42:51;17.77;;;11.37;;
16506;SDS011;8366;51.020;7.642;2023-03-01T09:45:23;17.07;;;10.03;;
16506;SDS011;8366;51.020;7.642;2023-03-01T09:47:55;14.30;;;8.87;;
16506;SDS011;8366;51.020;7.642;2023-03-01T09:50:22;16.47;;;10.63;;
16506;SDS011;8366;51.020;7.642;2023-03-01T09:53:00;15.23;;;9.67;;
16506;SDS011;8366;51.020;7.642;2023-03-01T09:55:30;11.00;;;6.87;;
16506;SDS011;8366;51.020;7.642;2023-03-01T09:58:00;15.53;;;9.73;;
16506;SDS011;8366;51.020;7.642;2023-03-01T10:00:36;13.77;;;9.10;;
16506;SDS011;8366;51.020;7.642;2023-03-01T10:03:10;14.80;;;9.57;;
16506;SDS011;8366;51.020;7.642;2023-03-01T10:05:42;17.13;;;10.20;;
16506;SDS011;8366;51.020;7.642;2023-03-01T10:08:28;15.23;;;9.13;;
16506;SDS011;8366;51.020;7.642;2023-03-01T10:11:00;15.20;;;9.17;;
16506;SDS011;8366;51.020;7.642;2023-03-01T10:13:29;14.23;;;9.30;;
16506;SDS011;8366;51.020;7.642;2023-03-01T10:16:01;13.73;;;9.43;;
16506;SDS011;8366;51.020;7.642;2023-03-01T10:18:30;13.60;;;9.27;;
16506;SDS011;8366;51.020;7.642;2023-03-01T10:20:59;14.93;;;9.90;;
16506;SDS011;8366;51.020;7.642;2023-03-01T10:23:31;12.67;;;8.37;;
16506;SDS011;8366;51.020;7.642;2023-03-01T10:26:05;13.90;;;9.20;;
16506;SDS011;8366;51.020;7.642;2023-03-01T10:28:39;12.87;;;8.23;;
16506;SDS011;8366;51.020;7.642;2023-03-01T10:31:12;13.37;;;8.23;;
16506;SDS011;8366;51.020;7.642;2023-03-01T10:33:39;16.17;;;9.50;;
16506;SDS011;8366;51.020;7.642;2023-03-01T10:36:07;14.77;;;9.37;;
16506;SDS011;8366;51.020;7.642;2023-03-01T10:38:48;14.90;;;9.23;;
16506;SDS011;8366;51.020;7.642;2023-03-01T10:41:17;12.30;;;8.40;;
16506;SDS011;8366;51.020;7.642;2023-03-01T10:43:45;14.87;;;8.70;;
16506;SDS011;8366;51.020;7.642;2023-03-01T10:46:27;12.97;;;8.30;;
16506;SDS011;8366;51.020;7.642;2023-03-01T10:49:10;14.83;;;8.67;;
16506;SDS011;8366;51.020;7.642;2023-03-01T10:51:40;11.47;;;8.50;;
16506;SDS011;8366;51.020;7.642;2023-03-01T10:54:16;13.90;;;8.30;;
16506;SDS011;8366;51.020;7.642;2023-03-01T10:56:48;12.30;;;8.07;;
16506;SDS011;8366;51.020;7.642;2023-03-01T10:59:26;11.57;;;7.97;;
16506;SDS011;8366;51.020;7.642;2023-03-01T11:02:00;13.70;;;8.30;;
16506;SDS011;8366;51.020;7.642;2023-03-01T11:04:29;13.40;;;8.40;;
16506;SDS011;8366;51.020;7.642;2023-03-01T11:06:59;12.27;;;7.97;;
16506;SDS011;8366;51.020;7.642;2023-03-01T11:09:30;11.83;;;8.13;;
16506;SDS011;8366;51.020;7.642;2023-03-01T11:12:04;12.43;;;7.57;;
16506;SDS011;8366;51.020;7.642;2023-03-01T11:14:38;13.27;;;7.57;;
16506;SDS011;8366;51.020;7.642;2023-03-01T11:17:11;13.27;;;8.33;;
16506;SDS011;8366;51.020;7.642;2023-03-01T11:19:41;12.23;;;7.97;;
16506;SDS011;8366;51.020;7.642;2023-03-01T11:22:10;10.20;;;7.10;;
16506;SDS011;8366;51.020;7.642;2023-03-01T11:24:41;10.17;;;6.57;;
16506;SDS011;8366;51.020;7.642;2023-03-01T11:27:15;11.93;;;7.73;;
16506;SDS011;8366;51.020;7.642;2023-03-01T11:32:42;10.07;;;6.77;;
16506;SDS011;8366;51.020;7.642;2023-03-01T11:35:15;9.73;;;6.80;;
16506;SDS011;8366;51.020;7.642;2023-03-01T11:37:55;9.83;;;6.50;;
16506;SDS011;8366;51.020;7.642;2023-03-01T11:40:30;10.80;;;7.00;;
16506;SDS011;8366;51.020;7.642;2023-03-01T11:43:04;9.70;;;7.20;;
16506;SDS011;8366;51.020;7.642;2023-03-01T11:45:42;9.40;;;6.60;;
16506;SDS011;8366;51.020;7.642;2023-03-01T11:48:24;8.37;;;6.07;;
16506;SDS011;8366;51.020;7.642;2023-03-01T11:50:57;9.63;;;6.23;;
16506;SDS011;8366;51.020;7.642;2023-03-01T11:56:19;9.43;;;6.03;;
16506;SDS011;8366;51.020;7.642;2023-03-01T11:59:00;8.40;;;5.90;;
16506;SDS011;8366;51.020;7.642;2023-03-01T12:01:36;9.50;;;6.03;;
16506;SDS011;8366;51.020;7.642;2023-03-01T12:04:15;10.50;;;6.03;;
16506;SDS011;8366;51.020;7.642;2023-03-01T12:06:57;8.47;;;5.53;;
16506;SDS011;8366;51.020;7.642;2023-03-01T12:09:30;8.40;;;5.23;;
16506;SDS011;8366;51.020;7.642;2023-03-01T12:12:07;11.67;;;5.87;;
16506;SDS011;8366;51.020;7.642;2023-03-01T12:14:46;8.57;;;5.70;;
16506;SDS011;8366;51.020;7.642;2023-03-01T12:17:37;8.50;;;5.10;;
16506;SDS011;8366;51.020;7.642;2023-03-01T12:20:14;11.23;;;5.40;;
16506;SDS011;8366;51.020;7.642;2023-03-01T12:22:50;9.27;;;5.40;;
16506;SDS011;8366;51.020;7.642;2023-03-01T12:25:25;7.27;;;5.37;;
16506;SDS011;8366;51.020;7.642;2023-03-01T12:31:09;8.53;;;5.37;;
16506;SDS011;8366;51.020;7.642;2023-03-01T12:33:52;6.17;;;4.87;;
16506;SDS011;8366;51.020;7.642;2023-03-01T12:36:42;7.73;;;5.07;;
16506;SDS011;8366;51.020;7.642;2023-03-01T12:39:28;8.43;;;5.10;;
16506;SDS011;8366;51.020;7.642;2023-03-01T12:42:04;8.93;;;5.00;;
16506;SDS011;8366;51.020;7.642;2023-03-01T12:44:41;10.13;;;5.23;;
16506;SDS011;8366;51.020;7.642;2023-03-01T12:47:18;7.43;;;5.07;;
16506;SDS011;8366;51.020;7.642;2023-03-01T12:49:49;6.57;;;4.93;;
16506;SDS011;8366;51.020;7.642;2023-03-01T12:52:19;7.80;;;5.23;;
16506;SDS011;8366;51.020;7.642;2023-03-01T12:54:49;6.67;;;4.57;;
16506;SDS011;8366;51.020;7.642;2023-03-01T12:57:18;7.73;;;4.50;;
16506;SDS011;8366;51.020;7.642;2023-03-01T12:59:50;8.43;;;4.60;;
16506;SDS011;8366;51.020;7.642;2023-03-01T13:02:23;7.97;;;4.53;;
16506;SDS011;8366;51.020;7.642;2023-03-01T13:04:53;5.57;;;4.33;;
16506;SDS011;8366;51.020;7.642;2023-03-01T13:07:29;7.47;;;5.20;;
16506;SDS011;8366;51.020;7.642;2023-03-01T13:10:04;9.10;;;4.87;;
16506;SDS011;8366;51.020;7.642;2023-03-01T13:12:51;5.70;;;4.30;;
16506;SDS011;8366;51.020;7.642;2023-03-01T13:15:48;6.33;;;4.60;;
16506;SDS011;8366;51.020;7.642;2023-03-01T13:18:31;6.63;;;4.40;;
16506;SDS011;8366;51.020;7.642;2023-03-01T13:20:59;6.60;;;5.00;;
16506;SDS011;8366;51.020;7.642;2023-03-01T13:23:29;7.33;;;4.50;;
16506;SDS011;8366;51.020;7.642;2023-03-01T13:26:04;7.50;;;4.50;;
16506;SDS011;8366;51.020;7.642;2023-03-01T13:28:39;6.63;;;4.33;;
16506;SDS011;8366;51.020;7.642;2023-03-01T13:37:25;6.53;;;3.97;;
16506;SDS011;8366;51.020;7.642;2023-03-01T13:40:01;6.43;;;4.23;;
16506;SDS011;8366;51.020;7.642;2023-03-01T13:42:35;5.53;;;4.13;;
16506;SDS011;8366;51.020;7.642;2023-03-01T13:45:15;8.70;;;4.70;;
16506;SDS011;8366;51.020;7.642;2023-03-01T13:47:44;7.37;;;4.90;;
16506;SDS011;8366;51.020;7.642;2023-03-01T13:50:18;7.97;;;4.93;;
16506;SDS011;8366;51.020;7.642;2023-03-01T13:52:48;7.70;;;4.60;;
16506;SDS011;8366;51.020;7.642;2023-03-01T13:55:18;8.10;;;4.57;;
16506;SDS011;8366;51.020;7.642;2023-03-01T13:57:48;9.73;;;4.40;;
16506;SDS011;8366;51.020;7.642;2023-03-01T14:00:25;7.83;;;4.43;;
16506;SDS011;8366;51.020;7.642;2023-03-01T14:03:03;8.43;;;5.20;;
16506;SDS011;8366;51.020;7.642;2023-03-01T14:05:33;7.07;;;4.87;;
16506;SDS011;8366;51.020;7.642;2023-03-01T14:08:01;8.07;;;4.60;;
16506;SDS011;8366;51.020;7.642;2023-03-01T14:10:32;6.77;;;4.30;;
16506;SDS011;8366;51.020;7.642;2023-03-01T14:13:06;7.60;;;5.03;;
16506;SDS011;8366;51.020;7.642;2023-03-01T14:15:44;6.80;;;4.83;;
16506;SDS011;8366;51.020;7.642;2023-03-01T14:18:16;8.60;;;4.80;;
16506;SDS011;8366;51.020;7.642;2023-03-01T14:20:48;6.27;;;4.53;;
16506;SDS011;8366;51.020;7.642;2023-03-01T14:23:18;6.70;;;4.77;;
16506;SDS011;8366;51.020;7.642;2023-03-01T14:25:46;7.67;;;4.40;;
16506;SDS011;8366;51.020;7.642;2023-03-01T14:28:15;7.03;;;4.47;;
16506;SDS011;8366;51.020;7.642;2023-03-01T14:30:43;8.53;;;4.53;;
16506;SDS011;8366;51.020;7.642;2023-03-01T14:33:18;7.70;;;4.73;;
16506;SDS011;8366;51.020;7.642;2023-03-01T14:35:53;8.47;;;5.17;;
16506;SDS011;8366;51.020;7.642;2023-03-01T14:38:21;7.40;;;4.53;;
16506;SDS011;8366;51.020;7.642;2023-03-01T14:40:50;7.53;;;4.90;;
16506;SDS011;8366;51.020;7.642;2023-03-01T14:43:18;8.03;;;4.63;;
16506;SDS011;8366;51.020;7.642;2023-03-01T14:45:47;8.13;;;4.27;;
16506;SDS011;8366;51.020;7.642;2023-03-01T14:48:14;7.00;;;4.60;;
16506;SDS011;8366;51.020;7.642;2023-03-01T14:50:42;6.27;;;4.60;;
16506;SDS011;8366;51.020;7.642;2023-03-01T14:53:15;6.70;;;4.40;;
16506;SDS011;8366;51.020;7.642;2023-03-01T14:55:44;7.53;;;5.00;;
16506;SDS011;8366;51.020;7.642;2023-03-01T14:58:13;7.90;;;4.87;;
16506;SDS011;8366;51.020;7.642;2023-03-01T15:00:42;7.87;;;4.73;;
16506;SDS011;8366;51.020;7.642;2023-03-01T15:03:19;6.13;;;4.40;;
16506;SDS011;8366;51.020;7.642;2023-03-01T15:05:52;6.10;;;4.23;;
16506;SDS011;8366;51.020;7.642;2023-03-01T15:08:22;8.17;;;4.67;;
16506;SDS011;8366;51.020;7.642;2023-03-01T15:10:58;6.77;;;4.77;;
16506;SDS011;8366;51.020;7.642;2023-03-01T15:13:28;7.70;;;4.80;;
16506;SDS011;8366;51.020;7.642;2023-03-01T15:16:01;7.03;;;5.00;;
16506;SDS011;8366;51.020;7.642;2023-03-01T15:18:30;7.80;;;4.63;;